Taylorville, Pennsylvania
Current Conditions -  °F | °C
As of 6:35 AM on Thursday 18 Dec 2014 (Local Time) from KHZL Reporting Station
Overcast Overcast  
Wind Chill: 18°   Ceiling: 2700
Heat Index: 30°   Visibility: 10mi
Dew Point: 23°   Wind: 17mph
Humidity: 75%   Direction: 300°WNW
Pressure: 29.98"   Gusts: 22mph
Location:  40.7564°N, 76.3531°W
Report Text: KHZL 181135Z AUTO 30015G19KT 10SM OVC027 M01/M05 A2998 RMK AO2
Loading
Personal Weather Stations






























Interactive Weather Map New forecast layout! Learn more

10-Day Weather Forecast

Advertisements
Track Severe Weather on mobile